Twin Springs, Nevada Weather observations

Data are for observation ending at time listed.
 Day   Time    Ave.   Ave.  Ave.  Vector   Max.   Stn.    Total    Solar   Ave.  
  of    of     Air    Rel.  Wind   Wind    Wind   Baro.  Precip.   Rad.    Soil  
Year   Day     Temp.  Hum.  Speed  Dir.    Gust   Pres.                    Temp. 
2016   (PST)    F      %     mph   deg.    mph     mb.     in.     W/m2     F   
------------------------------------------------------------------------------
  38    5:00   -3.1    83    2.4   324      3.4    858     0.00       0    29.9
  38    6:00   -1.5    84    1.9   322      3.3    859     0.00       0    29.9
  38    7:00   -3.6    83    1.0   297      2.0    859     0.00       1    29.8
  38    8:00   -0.4    78    2.2   321      3.1    859     0.00      65    29.7
  38    9:00    2.7    76    5.7   327      9.6    859     0.00     180    29.6
  38   10:00    7.6    76    7.7   314     11.2    860     0.00     331    29.6
  38   11:00   12.2    76    7.6   341     10.7    860     0.00     468    29.6
  38   12:00   18.6    74    5.8   320      8.4    860     0.00     657    29.7
  38   13:00   22.3    74    5.7   333      8.8    859     0.00     676    29.9
  38   14:00   24.0    77    5.5   344      8.5    858     0.00     605    30.1
  38   15:00   29.5    68    2.5   327      5.4    858     0.00     476    30.4
  38   16:00   26.9    77    5.6   319      8.8    858     0.00     303    30.6
  38   17:00   22.4    85    5.8   328      8.5    858     0.00     109    30.7
  38   18:00   16.6    89    4.0   342      6.7    859     0.00       2    30.7
  38   19:00   12.2    89    3.5    27      6.6    859     0.00       0    30.6
  38   20:00   10.9    90    6.4   320      8.8    860     0.00       0    30.5
  38   21:00    7.0    89    6.9   320      9.1    860     0.00       0    30.5
  38   22:00    4.5    88    5.7   325      9.3    860     0.00       0    30.4
  38   23:00    4.2    88    4.4   327      6.6    860     0.00       0    30.2
  39    0:00    5.5    88    3.9   331      5.8    861     0.00       0    30.1
  39    1:00    2.1    86    5.4   318      8.7    861     0.00       0    29.9
  39    2:00    0.9    85    5.6   324      8.3    861     0.00       0    29.8
  39    3:00    1.6    86    5.9   333      7.7    861     0.00       0    29.6
  39    4:00   -0.0    85    4.6   320      6.8    861     0.00       0    29.5

Return to Twin Springs, Nevada graphs page.


Western Regional Climate Center,wrcc@dri.edu